Jack C. Davis Observatory, Carson City, Nevada Weather observations

Data are for observation ending at time listed.
 Day   Time    Ave.   Ave.  Ave.  Vector   Max.   Stn.    Total    Solar   Ave.  
  of    of     Air    Rel.  Wind   Wind    Wind   Baro.  Precip.   Rad.    Soil  
Year   Day     Temp.  Hum.  Speed  Dir.    Gust   Pres.                    Temp. 
2014   (PST)    F      %     mph   deg.    mph     mb.     in.     W/m2     F   
------------------------------------------------------------------------------
 272   10:50   60.4    43    5.4    87      9.2   847.1    0.00     730    999.0
 272   11:00   62.0    41    5.2   115      8.5   847.0    0.00     738    999.0
 272   11:10   62.2    41    3.8    83      7.4   847.0    0.00     745    999.0
 272   11:20   62.7    41    5.4   101      9.0   846.9    0.00     750    999.0
 272   11:30   64.0    39    4.3   126      7.7   847.0    0.00     756    999.0
 272   11:40   65.4    37    5.1   121      8.6   846.9    0.00     759    999.0
 272   11:50   66.3    35    5.2   138      9.5   847.0    0.00     761    999.0
 272   12:00   66.4    35    4.1   116      9.3   846.8    0.00     761    999.0
 272   12:10   65.8    36    6.6   108     11.2   846.8    0.00     758    999.0
 272   12:20   66.5    35    4.3    98      9.5   846.7    0.00     758    999.0
 272   12:30   66.7    34    5.4    75      9.0   846.6    0.00     676    999.0
 272   12:40   67.6    33    3.2    36      8.8   846.5    0.00     587    999.0
 272   12:50   68.9    31    7.1   282     12.9   846.3    0.00     614    999.0
 272   13:00   69.4    30    7.3   278     15.5   846.2    0.00     713    999.0
 272   13:10   69.9    30    8.8   272     14.4   846.1    0.00     705    999.0
 272   13:20   70.4    30    4.5   306      9.5   846.1    0.00     695    999.0
 272   13:30   70.7    29    4.9   281     13.2   846.0    0.00     678    999.0
 272   13:40   70.6    29    7.5   277     13.0   846.0    0.00     635    999.0
 272   13:50   71.3    28    4.8   311     12.7   846.0    0.00     643    999.0
 272   14:00   70.5    29    5.8   300     11.1   846.0    0.00     620    999.0
 272   14:10   71.1    29    3.7   303     12.2   845.9    0.00     606    999.0
 272   14:20   71.0    30    6.5   259     13.7   845.8    0.00     581    999.0
 272   14:30   70.9    30    5.7     3     10.1   845.8    0.00     553    999.0
 272   14:40   71.3    29    4.3   296      9.2   845.8    0.00     529    999.0
 272   14:50   71.5    28    3.7   108      6.9   845.8    0.00     503    999.0
 272   15:00   70.6    29    4.0    68      7.2   845.8    0.00     491    999.0
 272   15:10   73.0    27    2.9   210      5.6   845.7    0.00     460    999.0
 272   15:20   74.0    26    2.6   145      4.6   845.7    0.00     450    999.0
 272   15:30   72.7    28    3.4   358      9.3   845.7    0.00     436    999.0
 272   15:40   71.7    29    7.5   305     11.5   845.7    0.00     450    999.0
 272   15:50   71.7    29    5.0   303      8.7   845.7    0.00     386    999.0
 272   16:00   72.1    29    2.9   327      5.8   845.7    0.00     316    999.0
 272   16:10   71.6    29    4.7   282      7.6   845.7    0.00     266    999.0
 272   16:20   70.7    30    5.2   294      8.2   845.7    0.00     231    999.0
 272   16:30   70.8    30    4.6   311      7.0   845.7    0.00     200    999.0
 272   16:40   70.1    30    4.9   310      7.1   845.7    0.00     171    999.0
 272   16:50   69.6    32    4.2   302      6.0   845.7    0.00     142    999.0
 272   17:00   67.1    37    5.3   275      7.2   845.7    0.00      34    999.0
 272   17:10   64.8    40    5.7   273      7.1   845.7    0.00      17    999.0
 272   17:20   64.3    40    6.6   273      8.4   845.7    0.00      12    999.0
 272   17:30   63.8    40    6.4   274      9.1   845.7    0.00       8    999.0
 272   17:40   63.6    41    7.7   283     11.8   845.7    0.00       5    999.0
 272   17:50   63.8    41    9.4   285     13.1   845.7    0.00       2    999.0
 272   18:00   64.0    41    9.4   285     13.8   845.6    0.00       0    999.0
 272   18:10   63.7    43   10.0   285     13.3   845.5    0.00       0    999.0
 272   18:20   63.5    43    9.0   280     13.0   845.5    0.00       0    999.0
 272   18:30   63.4    44    8.9   276     12.8   845.5    0.00       0    999.0
 272   18:40   63.1    46    9.4   276     13.6   845.7    0.00       0    999.0
 272   18:50   62.8    49    8.0   275     11.7   845.7    0.00       0    999.0
 272   19:00   62.3    50    8.6   272     13.0   845.8    0.00       0    999.0
 272   19:10   62.6    50    9.9   278     15.0   845.8    0.00       0    999.0
 272   19:20   61.8    52    7.7   266     11.5   845.9    0.00       0    999.0
 272   19:30   60.7    52    3.3   271      7.0   846.1    0.00       0    999.0
 272   19:40   61.4    50    1.4   154      4.7   846.2    0.00       0    999.0
 272   19:50   61.7    50    4.6   219     10.6   846.3    0.00       0    999.0
 272   20:00   60.1    51    5.1   200      6.5   846.2    0.00       0    999.0
 272   20:10   59.8    51    5.6   239      7.5   846.3    0.00       0    999.0
 272   20:20   57.8    58    6.6   267      7.9   846.5    0.00       0    999.0
 272   20:30   57.6    57    5.6   265      7.6   846.5    0.00       0    999.0
 272   20:40   58.0    56    5.6   270      7.2   846.6    0.00       0    999.0
 272   20:50   58.1    55    3.8   295      5.6   846.6    0.00       0    999.0
 272   21:00   57.6    56    3.3   297      4.3   846.6    0.00       0    999.0
 272   21:10   58.0    56    3.3   256      5.1   846.5    0.00       0    999.0
 272   21:20   58.4    54    2.4   218      3.1   846.7    0.00       0    999.0
 272   21:30   58.2    55    3.3   258      5.8   846.8    0.00       0    999.0
 272   21:40   56.2    60    4.4   270      5.7   846.7    0.00       0    999.0
 272   21:50   55.2    62    5.2   276      6.7   846.8    0.00       0    999.0
 272   22:00   55.6    60    2.8   315      4.4   846.7    0.00       0    999.0
 272   22:10   55.3    60    2.7   354      4.0   846.8    0.00       0    999.0
 272   22:20   56.2    58    2.3    13      4.4   846.8    0.00       0    999.0
 272   22:30   55.4    60    1.9   298      4.3   846.9    0.00       0    999.0
 272   22:40   53.9    64    2.8   280      5.6   846.9    0.00       0    999.0
 272   22:50   53.3    66    4.2   264      6.5   846.7    0.00       0    999.0
 272   23:00   53.4    65    4.4   241      6.4   846.6    0.00       0    999.0
 272   23:10   52.8    67    3.8   248      6.1   846.5    0.00       0    999.0
 272   23:20   52.6    67    4.1   289      5.5   846.5    0.00       0    999.0
 272   23:30   52.2    68    4.4   287      8.0   846.4    0.00       0    999.0
 272   23:40   52.4    67    3.5   302      7.8   846.4    0.00       0    999.0
 272   23:50   52.2    67    3.1   290      5.7   846.4    0.00       0    999.0
 273    0:00   51.1    71    4.9   264      7.1   846.3    0.00       0    999.0
 273    0:10   52.3    68    2.7   309      5.4   846.3    0.00       0    999.0
 273    0:20   51.3    70    2.5   256      5.4   846.3    0.00       0    999.0
 273    0:30   51.3    70    4.8   261      6.4   846.2    0.00       0    999.0
 273    0:40   51.0    71    4.5   304      5.8   846.2    0.00       0    999.0
 273    0:50   51.2    71    3.7   283      7.6   846.2    0.00       0    999.0
 273    1:00   51.2    70    2.5   301      6.3   846.2    0.00       0    999.0
 273    1:10   51.2    70    1.7   296      4.4   846.2    0.00       0    999.0
 273    1:20   51.6    69    1.6   315      3.1   846.2    0.00       0    999.0
 273    1:30   50.1    72    2.6   317      4.2   846.2    0.00       0    999.0
 273    1:40   50.3    72    4.1   261      6.8   846.2    0.00       0    999.0
 273    1:50   50.6    71    3.8   275      6.5   846.1    0.00       0    999.0
 273    2:00   50.6    71    2.8   289      5.9   846.0    0.00       0    999.0
 273    2:10   50.8    70    2.7   285      4.3   846.0    0.00       0    999.0
 273    2:20   49.2    73    3.7   282      7.9   845.9    0.00       0    999.0
 273    2:30   51.2    68    4.5   274     12.5   845.9    0.00       0    999.0
 273    2:40   51.7    67    5.0   309      7.3   845.8    0.00       0    999.0
 273    2:50   52.3    64    3.9   261      6.9   845.8    0.00       0    999.0
 273    3:00   51.7    65    6.3   257      8.6   845.7    0.00       0    999.0
 273    3:10   50.5    68    5.9   260      7.1   845.7    0.00       0    999.0
 273    3:20   52.2    63    4.4   262      6.8   845.7    0.00       0    999.0
 273    3:30   50.8    68    2.6    51      5.9   845.6    0.00       0    999.0
 273    3:40   50.3    69    2.2    11      4.6   845.6    0.00       0    999.0
 273    3:50   49.5    70    5.8   269      8.2   845.7    0.00       0    999.0
 273    4:00   49.7    70    6.2   264      8.9   845.7    0.00       0    999.0
 273    4:10   48.7    72    5.0   276      8.1   845.8    0.00       0    999.0
 273    4:20   47.9    74    6.6   264      8.4   845.8    0.00       0    999.0
 273    4:30   47.8    74    5.5   287      8.4   845.8    0.00       0    999.0
 273    4:40   48.9    71    4.2   275      8.7   845.8    0.00       0    999.0
 273    4:50   49.8    69    3.3   277      5.9   845.9    0.00       0    999.0
 273    5:00   48.1    73    4.9   292      6.3   845.8    0.00       0    999.0
 273    5:10   48.0    73    2.9   308      5.0   845.9    0.00       0    999.0
 273    5:20   48.2    73    4.0   315      7.5   845.8    0.00       0    999.0
 273    5:30   48.7    72    4.9   300      6.5   845.8    0.00       0    999.0
 273    5:40   48.9    71    3.7   290      6.3   845.8    0.00       0    999.0
 273    5:50   48.4    73    4.6   269      7.1   845.9    0.00       1    999.0
 273    6:00   48.0    74    4.7   267      5.9   845.9    0.00       5    999.0
 273    6:10   48.4    73    4.4   291      5.9   846.0    0.00      14    999.0
 273    6:20   49.8    70    4.6   323      7.1   846.1    0.00      36    999.0
 273    6:30   49.9    70    5.8   330      9.8   846.2    0.00      66    999.0
 273    6:40   51.5    66    7.4   322     12.0   846.2    0.00     104    999.0
 273    6:50   52.5    64    8.8   321     13.1   846.3    0.00     137    999.0
 273    7:00   52.0    65    9.9   320     15.6   846.4    0.00     154    999.0
 273    7:10   52.2    65   10.5   318     15.1   846.5    0.00     181    999.0
 273    7:20   54.3    61   10.8   323     15.0   846.5    0.00     225    999.0
 273    7:30   55.7    59   10.0   324     15.8   846.6    0.00     258    999.0
 273    7:40   56.8    57    9.1   326     16.2   846.6    0.00     293    999.0
 273    7:50   57.3    56    7.3   339     14.7   846.7    0.00     316    999.0
 273    8:00   58.2    54    6.7   334     13.8   846.6    0.00     355    999.0
 273    8:10   58.7    52    8.4   327     13.8   846.5    0.00     369    999.0
 273    8:20   59.3    51    6.8   330     14.4   846.5    0.00     412    999.0
 273    8:30   59.4    51    6.1   344     13.3   846.5    0.00     451    999.0
 273    8:40   59.5    52    4.8   360     10.5   846.7    0.00     445    999.0
 273    8:50   60.4    52    4.5   348     10.8   846.7    0.00     497    999.0
 273    9:00   61.0    50    4.3   357      9.9   846.7    0.00     519    999.0
 273    9:10   61.4    49    4.1     3      8.4   846.5    0.00     540    999.0
 273    9:20   61.9    49    4.5   333      9.6   846.5    0.00     557    999.0
 273    9:30   63.0    47    4.2   349      9.5   846.4    0.00     611    999.0
 273    9:40   63.3    46    3.9   345      7.6   846.3    0.00     575    999.0
 273    9:50   64.1    44    2.7   330      8.2   846.2    0.00     631    999.0
 273   10:00   65.7    42    2.6    28      6.3   846.2    0.00     646    999.0
 273   10:10   64.8    41    3.9    80      7.0   846.0    0.00     681    999.0
 273   10:20   64.6    41    3.5    94      7.4   845.8    0.00     680    999.0
 273   10:30   65.5    40    3.0    50      6.3   845.7    0.00     698    999.0
 273   10:40   65.9    39    4.1    85      9.2   845.5    0.00     683    999.0

Return to Yerington, Nevada graphs page.


Western Regional Climate Center,wrcc@dri.edu